sensor_id;sensor_type;location;lat;lon;timestamp;P1;durP1;ratioP1;P2;durP2;ratioP2
56567;SDS011;42456;49.956;20.004;2022-10-16T00:01:16;14.73;;;7.92;;
56567;SDS011;42456;49.956;20.004;2022-10-16T00:03:45;15.40;;;8.48;;
56567;SDS011;42456;49.956;20.004;2022-10-16T00:06:13;16.23;;;8.75;;
56567;SDS011;42456;49.956;20.004;2022-10-16T00:08:42;16.57;;;8.50;;
56567;SDS011;42456;49.956;20.004;2022-10-16T00:11:13;15.18;;;8.28;;
56567;SDS011;42456;49.956;20.004;2022-10-16T00:13:43;13.72;;;8.03;;
56567;SDS011;42456;49.956;20.004;2022-10-16T00:16:13;15.18;;;8.50;;
56567;SDS011;42456;49.956;20.004;2022-10-16T00:18:40;18.02;;;9.00;;
56567;SDS011;42456;49.956;20.004;2022-10-16T00:21:08;17.65;;;9.25;;
56567;SDS011;42456;49.956;20.004;2022-10-16T00:23:38;13.88;;;8.30;;
56567;SDS011;42456;49.956;20.004;2022-10-16T00:26:06;17.07;;;8.53;;
56567;SDS011;42456;49.956;20.004;2022-10-16T00:28:36;16.07;;;8.78;;
56567;SDS011;42456;49.956;20.004;2022-10-16T00:31:08;17.82;;;9.38;;
56567;SDS011;42456;49.956;20.004;2022-10-16T00:33:33;14.45;;;9.08;;
56567;SDS011;42456;49.956;20.004;2022-10-16T00:36:01;16.00;;;8.10;;
56567;SDS011;42456;49.956;20.004;2022-10-16T00:38:29;16.77;;;9.03;;
56567;SDS011;42456;49.956;20.004;2022-10-16T00:40:56;14.45;;;8.60;;
56567;SDS011;42456;49.956;20.004;2022-10-16T00:46:17;20.02;;;9.58;;
56567;SDS011;42456;49.956;20.004;2022-10-16T00:51:37;15.88;;;8.73;;
56567;SDS011;42456;49.956;20.004;2022-10-16T00:54:13;13.60;;;8.63;;
56567;SDS011;42456;49.956;20.004;2022-10-16T00:56:49;14.30;;;8.40;;
56567;SDS011;42456;49.956;20.004;2022-10-16T00:59:19;16.07;;;8.78;;
56567;SDS011;42456;49.956;20.004;2022-10-16T01:01:51;14.23;;;8.25;;
56567;SDS011;42456;49.956;20.004;2022-10-16T01:04:18;15.50;;;8.68;;
56567;SDS011;42456;49.956;20.004;2022-10-16T01:12:48;14.28;;;8.50;;
56567;SDS011;42456;49.956;20.004;2022-10-16T01:18:03;13.53;;;8.08;;
56567;SDS011;42456;49.956;20.004;2022-10-16T01:20:42;14.38;;;8.28;;
56567;SDS011;42456;49.956;20.004;2022-10-16T01:29:20;12.10;;;7.90;;
56567;SDS011;42456;49.956;20.004;2022-10-16T01:32:05;13.98;;;7.87;;
56567;SDS011;42456;49.956;20.004;2022-10-16T01:34:44;23.83;;;8.55;;
56567;SDS011;42456;49.956;20.004;2022-10-16T01:37:12;13.32;;;7.97;;
56567;SDS011;42456;49.956;20.004;2022-10-16T01:39:42;14.47;;;8.30;;
56567;SDS011;42456;49.956;20.004;2022-10-16T01:42:14;14.80;;;7.92;;
56567;SDS011;42456;49.956;20.004;2022-10-16T01:44:44;14.07;;;8.40;;
56567;SDS011;42456;49.956;20.004;2022-10-16T01:47:13;15.25;;;8.08;;
56567;SDS011;42456;49.956;20.004;2022-10-16T01:49:41;14.47;;;8.95;;
56567;SDS011;42456;49.956;20.004;2022-10-16T01:52:11;14.00;;;8.13;;
56567;SDS011;42456;49.956;20.004;2022-10-16T01:54:42;14.45;;;8.78;;
56567;SDS011;42456;49.956;20.004;2022-10-16T01:57:11;18.25;;;9.28;;
56567;SDS011;42456;49.956;20.004;2022-10-16T01:59:44;15.20;;;9.18;;
56567;SDS011;42456;49.956;20.004;2022-10-16T02:02:14;17.27;;;9.25;;
56567;SDS011;42456;49.956;20.004;2022-10-16T02:04:44;14.05;;;9.00;;
56567;SDS011;42456;49.956;20.004;2022-10-16T02:07:14;14.55;;;8.68;;
56567;SDS011;42456;49.956;20.004;2022-10-16T02:09:41;15.53;;;8.53;;
56567;SDS011;42456;49.956;20.004;2022-10-16T02:12:13;18.77;;;9.55;;
56567;SDS011;42456;49.956;20.004;2022-10-16T02:14:41;14.78;;;8.83;;
56567;SDS011;42456;49.956;20.004;2022-10-16T02:17:11;15.03;;;8.63;;
56567;SDS011;42456;49.956;20.004;2022-10-16T02:19:42;15.90;;;8.08;;
56567;SDS011;42456;49.956;20.004;2022-10-16T02:22:18;14.60;;;8.70;;
56567;SDS011;42456;49.956;20.004;2022-10-16T02:33:12;16.40;;;7.85;;
56567;SDS011;42456;49.956;20.004;2022-10-16T02:35:40;13.57;;;8.53;;
56567;SDS011;42456;49.956;20.004;2022-10-16T02:38:09;12.88;;;7.62;;
56567;SDS011;42456;49.956;20.004;2022-10-16T02:40:37;13.75;;;8.40;;
56567;SDS011;42456;49.956;20.004;2022-10-16T02:43:04;13.48;;;8.33;;
56567;SDS011;42456;49.956;20.004;2022-10-16T02:45:31;12.95;;;7.95;;
56567;SDS011;42456;49.956;20.004;2022-10-16T02:47:58;13.18;;;8.03;;
56567;SDS011;42456;49.956;20.004;2022-10-16T02:50:24;12.78;;;7.42;;
56567;SDS011;42456;49.956;20.004;2022-10-16T02:52:51;13.38;;;7.60;;
56567;SDS011;42456;49.956;20.004;2022-10-16T02:55:17;13.83;;;7.75;;
56567;SDS011;42456;49.956;20.004;2022-10-16T02:57:44;13.48;;;7.65;;
56567;SDS011;42456;49.956;20.004;2022-10-16T03:00:11;13.65;;;7.85;;
56567;SDS011;42456;49.956;20.004;2022-10-16T03:02:40;16.70;;;7.83;;
56567;SDS011;42456;49.956;20.004;2022-10-16T03:05:08;13.90;;;7.45;;
56567;SDS011;42456;49.956;20.004;2022-10-16T03:07:34;11.97;;;7.65;;
56567;SDS011;42456;49.956;20.004;2022-10-16T03:10:01;12.13;;;7.30;;
56567;SDS011;42456;49.956;20.004;2022-10-16T03:12:28;12.18;;;7.75;;
56567;SDS011;42456;49.956;20.004;2022-10-16T03:14:55;12.53;;;7.55;;
56567;SDS011;42456;49.956;20.004;2022-10-16T03:17:22;11.97;;;7.50;;
56567;SDS011;42456;49.956;20.004;2022-10-16T03:19:50;11.88;;;7.70;;
56567;SDS011;42456;49.956;20.004;2022-10-16T03:22:17;12.07;;;7.40;;
56567;SDS011;42456;49.956;20.004;2022-10-16T03:24:43;17.85;;;8.20;;
56567;SDS011;42456;49.956;20.004;2022-10-16T03:27:10;13.75;;;8.15;;
56567;SDS011;42456;49.956;20.004;2022-10-16T03:29:36;19.50;;;7.60;;
56567;SDS011;42456;49.956;20.004;2022-10-16T03:32:02;14.18;;;7.87;;
56567;SDS011;42456;49.956;20.004;2022-10-16T03:34:29;13.83;;;7.72;;
56567;SDS011;42456;49.956;20.004;2022-10-16T03:36:55;14.05;;;7.55;;
56567;SDS011;42456;49.956;20.004;2022-10-16T03:39:22;14.98;;;7.85;;
56567;SDS011;42456;49.956;20.004;2022-10-16T03:41:48;12.82;;;7.90;;
56567;SDS011;42456;49.956;20.004;2022-10-16T03:44:15;15.80;;;7.92;;
56567;SDS011;42456;49.956;20.004;2022-10-16T03:46:41;14.03;;;8.40;;
56567;SDS011;42456;49.956;20.004;2022-10-16T03:49:07;12.18;;;7.53;;
56567;SDS011;42456;49.956;20.004;2022-10-16T03:51:34;14.68;;;7.80;;
56567;SDS011;42456;49.956;20.004;2022-10-16T03:54:00;12.00;;;7.47;;
56567;SDS011;42456;49.956;20.004;2022-10-16T03:56:26;13.65;;;7.60;;
56567;SDS011;42456;49.956;20.004;2022-10-16T03:58:53;12.47;;;7.10;;
56567;SDS011;42456;49.956;20.004;2022-10-16T04:01:19;14.03;;;7.78;;
56567;SDS011;42456;49.956;20.004;2022-10-16T04:03:45;13.50;;;7.28;;
56567;SDS011;42456;49.956;20.004;2022-10-16T04:06:12;14.50;;;7.97;;
56567;SDS011;42456;49.956;20.004;2022-10-16T04:08:38;13.45;;;7.70;;
56567;SDS011;42456;49.956;20.004;2022-10-16T04:11:04;15.30;;;8.55;;
56567;SDS011;42456;49.956;20.004;2022-10-16T04:13:31;13.38;;;7.60;;
56567;SDS011;42456;49.956;20.004;2022-10-16T04:15:57;17.15;;;7.75;;
56567;SDS011;42456;49.956;20.004;2022-10-16T04:18:23;11.83;;;7.67;;
56567;SDS011;42456;49.956;20.004;2022-10-16T04:20:52;15.30;;;7.67;;
56567;SDS011;42456;49.956;20.004;2022-10-16T04:23:19;13.20;;;7.50;;
56567;SDS011;42456;49.956;20.004;2022-10-16T04:25:48;13.48;;;7.67;;
56567;SDS011;42456;49.956;20.004;2022-10-16T04:28:14;13.88;;;7.45;;
56567;SDS011;42456;49.956;20.004;2022-10-16T04:30:40;11.55;;;7.53;;
56567;SDS011;42456;49.956;20.004;2022-10-16T04:33:08;13.03;;;7.90;;
56567;SDS011;42456;49.956;20.004;2022-10-16T04:35:35;16.75;;;7.58;;
56567;SDS011;42456;49.956;20.004;2022-10-16T04:38:01;13.05;;;7.33;;
56567;SDS011;42456;49.956;20.004;2022-10-16T04:40:28;13.32;;;8.30;;
56567;SDS011;42456;49.956;20.004;2022-10-16T04:42:54;15.28;;;7.97;;
56567;SDS011;42456;49.956;20.004;2022-10-16T04:45:20;11.73;;;7.50;;
56567;SDS011;42456;49.956;20.004;2022-10-16T04:47:46;15.00;;;8.03;;
56567;SDS011;42456;49.956;20.004;2022-10-16T04:50:13;14.15;;;7.22;;
56567;SDS011;42456;49.956;20.004;2022-10-16T04:52:39;12.43;;;7.67;;
56567;SDS011;42456;49.956;20.004;2022-10-16T04:55:06;13.95;;;8.08;;
56567;SDS011;42456;49.956;20.004;2022-10-16T04:57:33;12.80;;;7.33;;
56567;SDS011;42456;49.956;20.004;2022-10-16T04:59:59;14.20;;;7.50;;
56567;SDS011;42456;49.956;20.004;2022-10-16T05:02:25;10.90;;;6.78;;
56567;SDS011;42456;49.956;20.004;2022-10-16T05:04:52;12.55;;;7.62;;
56567;SDS011;42456;49.956;20.004;2022-10-16T05:07:18;11.20;;;7.17;;
56567;SDS011;42456;49.956;20.004;2022-10-16T05:09:44;13.03;;;7.33;;
56567;SDS011;42456;49.956;20.004;2022-10-16T05:12:11;11.22;;;6.80;;
56567;SDS011;42456;49.956;20.004;2022-10-16T05:14:37;15.20;;;7.85;;
56567;SDS011;42456;49.956;20.004;2022-10-16T05:17:03;15.13;;;7.62;;
56567;SDS011;42456;49.956;20.004;2022-10-16T05:19:30;15.83;;;7.58;;
56567;SDS011;42456;49.956;20.004;2022-10-16T05:21:56;11.35;;;7.15;;
56567;SDS011;42456;49.956;20.004;2022-10-16T05:24:23;12.63;;;7.42;;
56567;SDS011;42456;49.956;20.004;2022-10-16T05:26:49;13.00;;;7.50;;
56567;SDS011;42456;49.956;20.004;2022-10-16T05:29:16;13.25;;;6.87;;
56567;SDS011;42456;49.956;20.004;2022-10-16T05:31:42;14.90;;;7.22;;
56567;SDS011;42456;49.956;20.004;2022-10-16T05:34:09;12.40;;;6.87;;
56567;SDS011;42456;49.956;20.004;2022-10-16T05:36:35;13.83;;;8.00;;
56567;SDS011;42456;49.956;20.004;2022-10-16T05:39:02;20.55;;;7.62;;
56567;SDS011;42456;49.956;20.004;2022-10-16T05:41:28;13.22;;;7.40;;
56567;SDS011;42456;49.956;20.004;2022-10-16T05:43:55;12.18;;;7.15;;
56567;SDS011;42456;49.956;20.004;2022-10-16T05:46:21;13.35;;;6.92;;
56567;SDS011;42456;49.956;20.004;2022-10-16T05:48:47;11.93;;;6.92;;
56567;SDS011;42456;49.956;20.004;2022-10-16T05:51:14;11.75;;;7.12;;
56567;SDS011;42456;49.956;20.004;2022-10-16T05:53:40;14.10;;;7.17;;
56567;SDS011;42456;49.956;20.004;2022-10-16T05:56:08;12.25;;;6.95;;
56567;SDS011;42456;49.956;20.004;2022-10-16T05:58:36;12.93;;;7.90;;
56567;SDS011;42456;49.956;20.004;2022-10-16T06:01:06;17.10;;;7.05;;
56567;SDS011;42456;49.956;20.004;2022-10-16T06:03:36;16.52;;;7.25;;
56567;SDS011;42456;49.956;20.004;2022-10-16T06:08:39;12.50;;;6.60;;
56567;SDS011;42456;49.956;20.004;2022-10-16T06:11:08;10.70;;;6.78;;
56567;SDS011;42456;49.956;20.004;2022-10-16T06:13:44;13.70;;;6.85;;
56567;SDS011;42456;49.956;20.004;2022-10-16T06:16:16;14.80;;;6.62;;
56567;SDS011;42456;49.956;20.004;2022-10-16T06:18:42;13.75;;;7.35;;
56567;SDS011;42456;49.956;20.004;2022-10-16T06:21:14;13.25;;;7.35;;
56567;SDS011;42456;49.956;20.004;2022-10-16T06:23:42;13.95;;;7.35;;
56567;SDS011;42456;49.956;20.004;2022-10-16T06:26:12;12.43;;;7.33;;
56567;SDS011;42456;49.956;20.004;2022-10-16T06:28:41;14.15;;;7.12;;
56567;SDS011;42456;49.956;20.004;2022-10-16T06:31:08;13.35;;;7.62;;
56567;SDS011;42456;49.956;20.004;2022-10-16T06:33:37;14.53;;;7.87;;
56567;SDS011;42456;49.956;20.004;2022-10-16T06:36:15;14.35;;;7.97;;
56567;SDS011;42456;49.956;20.004;2022-10-16T06:38:41;13.98;;;7.33;;
56567;SDS011;42456;49.956;20.004;2022-10-16T06:41:12;16.23;;;7.87;;
56567;SDS011;42456;49.956;20.004;2022-10-16T06:43:42;13.75;;;7.83;;
56567;SDS011;42456;49.956;20.004;2022-10-16T06:46:10;14.53;;;7.72;;
56567;SDS011;42456;49.956;20.004;2022-10-16T06:48:39;13.62;;;8.03;;
56567;SDS011;42456;49.956;20.004;2022-10-16T06:51:06;14.47;;;7.58;;
56567;SDS011;42456;49.956;20.004;2022-10-16T06:53:41;11.97;;;7.50;;
56567;SDS011;42456;49.956;20.004;2022-10-16T06:56:12;13.58;;;7.70;;
56567;SDS011;42456;49.956;20.004;2022-10-16T06:58:46;15.13;;;7.53;;
56567;SDS011;42456;49.956;20.004;2022-10-16T07:01:13;13.08;;;7.70;;
56567;SDS011;42456;49.956;20.004;2022-10-16T07:03:42;14.07;;;7.27;;
56567;SDS011;42456;49.956;20.004;2022-10-16T07:06:12;13.05;;;7.55;;
56567;SDS011;42456;49.956;20.004;2022-10-16T07:08:41;12.18;;;7.45;;
56567;SDS011;42456;49.956;20.004;2022-10-16T07:11:11;11.85;;;7.40;;
56567;SDS011;42456;49.956;20.004;2022-10-16T07:13:40;12.80;;;7.17;;
56567;SDS011;42456;49.956;20.004;2022-10-16T07:16:09;14.07;;;7.28;;
56567;SDS011;42456;49.956;20.004;2022-10-16T07:18:41;13.15;;;7.03;;
56567;SDS011;42456;49.956;20.004;2022-10-16T07:23:39;13.62;;;6.78;;
56567;SDS011;42456;49.956;20.004;2022-10-16T07:26:07;11.03;;;6.37;;
56567;SDS011;42456;49.956;20.004;2022-10-16T07:28:35;10.23;;;5.95;;
56567;SDS011;42456;49.956;20.004;2022-10-16T07:31:02;12.43;;;6.67;;
56567;SDS011;42456;49.956;20.004;2022-10-16T07:33:31;12.58;;;6.92;;
56567;SDS011;42456;49.956;20.004;2022-10-16T07:35:58;14.35;;;7.05;;
56567;SDS011;42456;49.956;20.004;2022-10-16T07:38:24;11.68;;;6.22;;
56567;SDS011;42456;49.956;20.004;2022-10-16T07:40:58;10.78;;;6.22;;
56567;SDS011;42456;49.956;20.004;2022-10-16T07:43:29;11.88;;;6.65;;
56567;SDS011;42456;49.956;20.004;2022-10-16T07:45:56;10.95;;;5.97;;
56567;SDS011;42456;49.956;20.004;2022-10-16T07:48:23;10.28;;;5.83;;
56567;SDS011;42456;49.956;20.004;2022-10-16T07:50:59;12.33;;;6.08;;
56567;SDS011;42456;49.956;20.004;2022-10-16T07:53:28;10.93;;;6.62;;
56567;SDS011;42456;49.956;20.004;2022-10-16T07:56:02;10.10;;;5.97;;
56567;SDS011;42456;49.956;20.004;2022-10-16T07:58:27;10.50;;;5.80;;
56567;SDS011;42456;49.956;20.004;2022-10-16T08:00:55;8.58;;;5.60;;
56567;SDS011;42456;49.956;20.004;2022-10-16T08:03:22;9.90;;;6.22;;
56567;SDS011;42456;49.956;20.004;2022-10-16T08:05:50;10.72;;;5.55;;
56567;SDS011;42456;49.956;20.004;2022-10-16T08:08:16;7.95;;;5.42;;
56567;SDS011;42456;49.956;20.004;2022-10-16T08:10:44;10.50;;;5.62;;
56567;SDS011;42456;49.956;20.004;2022-10-16T08:13:11;9.63;;;5.83;;
56567;SDS011;42456;49.956;20.004;2022-10-16T08:15:39;9.15;;;5.45;;
56567;SDS011;42456;49.956;20.004;2022-10-16T08:18:05;9.28;;;5.60;;
56567;SDS011;42456;49.956;20.004;2022-10-16T08:20:32;9.48;;;5.33;;
56567;SDS011;42456;49.956;20.004;2022-10-16T08:22:59;9.93;;;5.75;;
56567;SDS011;42456;49.956;20.004;2022-10-16T08:25:26;10.82;;;5.70;;
56567;SDS011;42456;49.956;20.004;2022-10-16T08:27:53;10.85;;;5.20;;
56567;SDS011;42456;49.956;20.004;2022-10-16T08:30:21;9.53;;;5.50;;
56567;SDS011;42456;49.956;20.004;2022-10-16T08:32:49;9.10;;;5.30;;
56567;SDS011;42456;49.956;20.004;2022-10-16T08:35:16;10.15;;;5.03;;
56567;SDS011;42456;49.956;20.004;2022-10-16T08:37:43;7.37;;;5.33;;
56567;SDS011;42456;49.956;20.004;2022-10-16T08:40:15;10.60;;;5.45;;
56567;SDS011;42456;49.956;20.004;2022-10-16T08:48:36;9.30;;;5.53;;
56567;SDS011;42456;49.956;20.004;2022-10-16T08:51:25;12.75;;;5.55;;
56567;SDS011;42456;49.956;20.004;2022-10-16T08:56:38;8.95;;;5.03;;
56567;SDS011;42456;49.956;20.004;2022-10-16T08:59:04;9.38;;;5.78;;
56567;SDS011;42456;49.956;20.004;2022-10-16T09:01:45;9.85;;;5.53;;
56567;SDS011;42456;49.956;20.004;2022-10-16T09:12:36;8.88;;;5.25;;
56567;SDS011;42456;49.956;20.004;2022-10-16T09:15:11;9.10;;;5.25;;
56567;SDS011;42456;49.956;20.004;2022-10-16T09:20:49;9.83;;;5.40;;
56567;SDS011;42456;49.956;20.004;2022-10-16T09:23:28;10.32;;;4.90;;
56567;SDS011;42456;49.956;20.004;2022-10-16T09:25:58;8.45;;;5.05;;
56567;SDS011;42456;49.956;20.004;2022-10-16T09:28:25;10.00;;;5.53;;
56567;SDS011;42456;49.956;20.004;2022-10-16T09:30:52;9.43;;;5.72;;
56567;SDS011;42456;49.956;20.004;2022-10-16T09:33:20;9.30;;;5.50;;
56567;SDS011;42456;49.956;20.004;2022-10-16T09:35:55;8.98;;;5.75;;
56567;SDS011;42456;49.956;20.004;2022-10-16T09:38:35;9.75;;;5.30;;
56567;SDS011;42456;49.956;20.004;2022-10-16T09:41:02;6.80;;;4.95;;
56567;SDS011;42456;49.956;20.004;2022-10-16T09:43:46;8.78;;;5.05;;
56567;SDS011;42456;49.956;20.004;2022-10-16T09:49:03;12.00;;;5.35;;
56567;SDS011;42456;49.956;20.004;2022-10-16T09:51:30;10.72;;;5.50;;
56567;SDS011;42456;49.956;20.004;2022-10-16T09:54:01;10.40;;;5.70;;
56567;SDS011;42456;49.956;20.004;2022-10-16T09:56:38;9.05;;;5.25;;
56567;SDS011;42456;49.956;20.004;2022-10-16T09:59:14;9.60;;;5.70;;
56567;SDS011;42456;49.956;20.004;2022-10-16T10:01:47;9.75;;;5.30;;
56567;SDS011;42456;49.956;20.004;2022-10-16T10:04:21;8.55;;;5.17;;
56567;SDS011;42456;49.956;20.004;2022-10-16T10:06:52;8.80;;;5.40;;
56567;SDS011;42456;49.956;20.004;2022-10-16T10:09:24;10.75;;;5.78;;
56567;SDS011;42456;49.956;20.004;2022-10-16T10:12:01;12.43;;;5.83;;
56567;SDS011;42456;49.956;20.004;2022-10-16T10:14:39;8.83;;;5.33;;
56567;SDS011;42456;49.956;20.004;2022-10-16T10:17:19;9.63;;;5.40;;
56567;SDS011;42456;49.956;20.004;2022-10-16T10:19:54;9.80;;;5.35;;
56567;SDS011;42456;49.956;20.004;2022-10-16T10:22:27;10.05;;;5.55;;
56567;SDS011;42456;49.956;20.004;2022-10-16T10:36:41;10.82;;;5.25;;
56567;SDS011;42456;49.956;20.004;2022-10-16T10:39:14;10.48;;;5.47;;
56567;SDS011;42456;49.956;20.004;2022-10-16T10:42:08;9.00;;;5.45;;
56567;SDS011;42456;49.956;20.004;2022-10-16T10:50:42;11.10;;;5.50;;
56567;SDS011;42456;49.956;20.004;2022-10-16T10:58:59;10.40;;;5.12;;
56567;SDS011;42456;49.956;20.004;2022-10-16T11:01:48;7.90;;;5.00;;
56567;SDS011;42456;49.956;20.004;2022-10-16T11:07:43;9.30;;;5.15;;
56567;SDS011;42456;49.956;20.004;2022-10-16T11:10:13;7.72;;;5.05;;
56567;SDS011;42456;49.956;20.004;2022-10-16T11:12:58;11.10;;;5.20;;
56567;SDS011;42456;49.956;20.004;2022-10-16T11:15:31;12.25;;;5.03;;
56567;SDS011;42456;49.956;20.004;2022-10-16T11:20:52;7.60;;;4.95;;
56567;SDS011;42456;49.956;20.004;2022-10-16T11:26:20;12.28;;;5.22;;
56567;SDS011;42456;49.956;20.004;2022-10-16T11:28:54;10.95;;;4.92;;
56567;SDS011;42456;49.956;20.004;2022-10-16T11:31:29;8.68;;;4.80;;
56567;SDS011;42456;49.956;20.004;2022-10-16T11:34:12;12.37;;;5.28;;
56567;SDS011;42456;49.956;20.004;2022-10-16T11:39:35;6.37;;;4.70;;
56567;SDS011;42456;49.956;20.004;2022-10-16T11:42:10;7.97;;;4.85;;
56567;SDS011;42456;49.956;20.004;2022-10-16T11:47:34;6.87;;;4.67;;
56567;SDS011;42456;49.956;20.004;2022-10-16T11:53:03;8.05;;;4.47;;
56567;SDS011;42456;49.956;20.004;2022-10-16T11:55:56;9.20;;;4.90;;
56567;SDS011;42456;49.956;20.004;2022-10-16T12:01:20;9.33;;;4.47;;
56567;SDS011;42456;49.956;20.004;2022-10-16T12:09:29;9.30;;;4.50;;
56567;SDS011;42456;49.956;20.004;2022-10-16T12:11:58;8.85;;;4.92;;
56567;SDS011;42456;49.956;20.004;2022-10-16T12:19:59;10.20;;;5.10;;
56567;SDS011;42456;49.956;20.004;2022-10-16T12:22:29;6.67;;;4.78;;
56567;SDS011;42456;49.956;20.004;2022-10-16T12:24:57;10.80;;;5.07;;
56567;SDS011;42456;49.956;20.004;2022-10-16T12:27:34;6.42;;;4.90;;
56567;SDS011;42456;49.956;20.004;2022-10-16T12:30:03;7.53;;;4.92;;
56567;SDS011;42456;49.956;20.004;2022-10-16T12:35:05;8.38;;;5.00;;
56567;SDS011;42456;49.956;20.004;2022-10-16T12:37:48;10.45;;;4.58;;
56567;SDS011;42456;49.956;20.004;2022-10-16T12:40:24;8.13;;;4.47;;
56567;SDS011;42456;49.956;20.004;2022-10-16T12:42:51;6.92;;;4.60;;
56567;SDS011;42456;49.956;20.004;2022-10-16T12:48:00;6.92;;;4.15;;
56567;SDS011;42456;49.956;20.004;2022-10-16T12:53:03;6.92;;;4.42;;
56567;SDS011;42456;49.956;20.004;2022-10-16T12:58:36;6.55;;;4.10;;
56567;SDS011;42456;49.956;20.004;2022-10-16T13:04:11;5.60;;;3.72;;
56567;SDS011;42456;49.956;20.004;2022-10-16T13:18:15;7.62;;;4.30;;
56567;SDS011;42456;49.956;20.004;2022-10-16T13:21:08;6.60;;;4.08;;
56567;SDS011;42456;49.956;20.004;2022-10-16T13:23:54;6.75;;;4.15;;
56567;SDS011;42456;49.956;20.004;2022-10-16T13:26:31;8.38;;;4.60;;
56567;SDS011;42456;49.956;20.004;2022-10-16T13:29:03;6.33;;;4.10;;
56567;SDS011;42456;49.956;20.004;2022-10-16T13:31:30;6.58;;;4.33;;
56567;SDS011;42456;49.956;20.004;2022-10-16T13:33:58;5.55;;;4.08;;
56567;SDS011;42456;49.956;20.004;2022-10-16T13:36:28;8.00;;;4.50;;
56567;SDS011;42456;49.956;20.004;2022-10-16T13:41:42;5.72;;;4.28;;
56567;SDS011;42456;49.956;20.004;2022-10-16T13:44:13;8.30;;;4.33;;
56567;SDS011;42456;49.956;20.004;2022-10-16T13:46:46;7.83;;;4.50;;
56567;SDS011;42456;49.956;20.004;2022-10-16T13:49:16;6.87;;;4.67;;
56567;SDS011;42456;49.956;20.004;2022-10-16T13:51:54;9.23;;;4.60;;
56567;SDS011;42456;49.956;20.004;2022-10-16T13:54:26;9.23;;;4.97;;
56567;SDS011;42456;49.956;20.004;2022-10-16T13:56:54;9.80;;;5.15;;
56567;SDS011;42456;49.956;20.004;2022-10-16T13:59:42;7.83;;;4.78;;
56567;SDS011;42456;49.956;20.004;2022-10-16T14:01:55;7.37;;;4.75;;
56567;SDS011;42456;49.956;20.004;2022-10-16T14:04:24;6.95;;;4.42;;
56567;SDS011;42456;49.956;20.004;2022-10-16T14:06:54;8.48;;;4.33;;
56567;SDS011;42456;49.956;20.004;2022-10-16T14:12:02;7.83;;;4.28;;
56567;SDS011;42456;49.956;20.004;2022-10-16T14:14:40;6.53;;;4.33;;
56567;SDS011;42456;49.956;20.004;2022-10-16T14:19:54;8.60;;;4.28;;
56567;SDS011;42456;49.956;20.004;2022-10-16T14:33:25;9.60;;;4.95;;
56567;SDS011;42456;49.956;20.004;2022-10-16T14:38:33;10.08;;;4.58;;
56567;SDS011;42456;49.956;20.004;2022-10-16T14:41:00;8.35;;;4.40;;
56567;SDS011;42456;49.956;20.004;2022-10-16T14:46:18;6.28;;;3.98;;
56567;SDS011;42456;49.956;20.004;2022-10-16T14:48:46;8.53;;;4.40;;
56567;SDS011;42456;49.956;20.004;2022-10-16T14:51:16;7.97;;;4.65;;
56567;SDS011;42456;49.956;20.004;2022-10-16T14:53:44;8.18;;;4.33;;
56567;SDS011;42456;49.956;20.004;2022-10-16T14:56:16;8.50;;;4.70;;
56567;SDS011;42456;49.956;20.004;2022-10-16T14:58:47;8.65;;;4.92;;
56567;SDS011;42456;49.956;20.004;2022-10-16T15:03:43;8.73;;;4.20;;
56567;SDS011;42456;49.956;20.004;2022-10-16T15:06:13;8.35;;;4.40;;
56567;SDS011;42456;49.956;20.004;2022-10-16T15:08:41;9.63;;;4.83;;
56567;SDS011;42456;49.956;20.004;2022-10-16T15:11:12;10.50;;;4.80;;
56567;SDS011;42456;49.956;20.004;2022-10-16T15:13:39;8.15;;;4.90;;
56567;SDS011;42456;49.956;20.004;2022-10-16T15:16:08;11.48;;;4.47;;
56567;SDS011;42456;49.956;20.004;2022-10-16T15:18:38;6.67;;;4.17;;
56567;SDS011;42456;49.956;20.004;2022-10-16T15:21:05;8.00;;;4.45;;
56567;SDS011;42456;49.956;20.004;2022-10-16T15:23:31;6.40;;;4.60;;
56567;SDS011;42456;49.956;20.004;2022-10-16T15:25:58;9.65;;;4.60;;
56567;SDS011;42456;49.956;20.004;2022-10-16T15:28:24;13.25;;;4.37;;
56567;SDS011;42456;49.956;20.004;2022-10-16T15:30:52;7.47;;;4.35;;
56567;SDS011;42456;49.956;20.004;2022-10-16T15:35:54;8.25;;;4.67;;
56567;SDS011;42456;49.956;20.004;2022-10-16T15:38:21;11.03;;;5.47;;
56567;SDS011;42456;49.956;20.004;2022-10-16T15:40:50;8.55;;;5.53;;
56567;SDS011;42456;49.956;20.004;2022-10-16T15:43:17;13.58;;;6.05;;
56567;SDS011;42456;49.956;20.004;2022-10-16T15:45:44;13.55;;;5.53;;
56567;SDS011;42456;49.956;20.004;2022-10-16T15:48:26;12.10;;;6.25;;
56567;SDS011;42456;49.956;20.004;2022-10-16T15:50:53;14.60;;;6.33;;
56567;SDS011;42456;49.956;20.004;2022-10-16T15:53:20;14.03;;;6.50;;
56567;SDS011;42456;49.956;20.004;2022-10-16T15:55:46;13.22;;;6.20;;
56567;SDS011;42456;49.956;20.004;2022-10-16T15:58:13;11.80;;;6.42;;
56567;SDS011;42456;49.956;20.004;2022-10-16T16:00:39;10.78;;;6.35;;
56567;SDS011;42456;49.956;20.004;2022-10-16T16:03:05;13.10;;;7.15;;
56567;SDS011;42456;49.956;20.004;2022-10-16T16:05:32;12.73;;;7.85;;
56567;SDS011;42456;49.956;20.004;2022-10-16T16:07:58;13.95;;;7.37;;
56567;SDS011;42456;49.956;20.004;2022-10-16T16:10:25;13.43;;;8.08;;
56567;SDS011;42456;49.956;20.004;2022-10-16T16:12:51;17.55;;;8.20;;
56567;SDS011;42456;49.956;20.004;2022-10-16T16:15:18;15.70;;;7.85;;
56567;SDS011;42456;49.956;20.004;2022-10-16T16:17:47;15.70;;;7.85;;
56567;SDS011;42456;49.956;20.004;2022-10-16T16:20:14;14.83;;;7.70;;
56567;SDS011;42456;49.956;20.004;2022-10-16T16:22:40;13.38;;;7.03;;
56567;SDS011;42456;49.956;20.004;2022-10-16T16:25:07;15.80;;;6.80;;
56567;SDS011;42456;49.956;20.004;2022-10-16T16:27:34;13.95;;;6.40;;
56567;SDS011;42456;49.956;20.004;2022-10-16T16:30:02;12.53;;;6.72;;
56567;SDS011;42456;49.956;20.004;2022-10-16T16:32:32;14.55;;;6.60;;
56567;SDS011;42456;49.956;20.004;2022-10-16T16:34:59;13.05;;;6.53;;
56567;SDS011;42456;49.956;20.004;2022-10-16T16:37:27;12.50;;;6.85;;
56567;SDS011;42456;49.956;20.004;2022-10-16T16:39:54;14.78;;;7.15;;
56567;SDS011;42456;49.956;20.004;2022-10-16T16:42:22;14.63;;;7.95;;
56567;SDS011;42456;49.956;20.004;2022-10-16T16:44:49;12.65;;;7.15;;
56567;SDS011;42456;49.956;20.004;2022-10-16T16:47:15;16.82;;;8.53;;
56567;SDS011;42456;49.956;20.004;2022-10-16T16:49:42;15.32;;;7.47;;
56567;SDS011;42456;49.956;20.004;2022-10-16T16:52:08;14.83;;;7.70;;
56567;SDS011;42456;49.956;20.004;2022-10-16T16:54:34;14.95;;;7.80;;
56567;SDS011;42456;49.956;20.004;2022-10-16T16:57:01;14.15;;;8.00;;
56567;SDS011;42456;49.956;20.004;2022-10-16T16:59:28;14.68;;;8.68;;
56567;SDS011;42456;49.956;20.004;2022-10-16T17:01:56;14.28;;;7.97;;
56567;SDS011;42456;49.956;20.004;2022-10-16T17:04:23;16.40;;;7.97;;
56567;SDS011;42456;49.956;20.004;2022-10-16T17:06:49;15.80;;;8.53;;
56567;SDS011;42456;49.956;20.004;2022-10-16T17:09:15;16.62;;;8.80;;
56567;SDS011;42456;49.956;20.004;2022-10-16T17:11:42;17.02;;;8.73;;
56567;SDS011;42456;49.956;20.004;2022-10-16T17:14:09;16.10;;;8.58;;
56567;SDS011;42456;49.956;20.004;2022-10-16T17:16:37;17.82;;;9.20;;
56567;SDS011;42456;49.956;20.004;2022-10-16T17:19:06;25.45;;;11.25;;
56567;SDS011;42456;49.956;20.004;2022-10-16T17:21:35;21.10;;;9.85;;
56567;SDS011;42456;49.956;20.004;2022-10-16T17:24:02;18.80;;;9.30;;
56567;SDS011;42456;49.956;20.004;2022-10-16T17:26:30;19.35;;;9.18;;